sensor_id;sensor_type;location;lat;lon;timestamp;P1;durP1;ratioP1;P2;durP2;ratioP2
63784;SDS011;49927;48.146;11.420;2022-09-02T00:01:12;5.75;;;3.60;;
63784;SDS011;49927;48.146;11.420;2022-09-02T00:03:39;4.30;;;3.35;;
63784;SDS011;49927;48.146;11.420;2022-09-02T00:06:04;4.68;;;3.70;;
63784;SDS011;49927;48.146;11.420;2022-09-02T00:08:30;4.80;;;3.72;;
63784;SDS011;49927;48.146;11.420;2022-09-02T00:10:56;4.78;;;4.00;;
63784;SDS011;49927;48.146;11.420;2022-09-02T00:13:22;6.38;;;3.67;;
63784;SDS011;49927;48.146;11.420;2022-09-02T00:15:49;5.90;;;3.97;;
63784;SDS011;49927;48.146;11.420;2022-09-02T00:18:15;4.25;;;3.85;;
63784;SDS011;49927;48.146;11.420;2022-09-02T00:20:42;5.55;;;4.20;;
63784;SDS011;49927;48.146;11.420;2022-09-02T00:23:08;4.82;;;4.30;;
63784;SDS011;49927;48.146;11.420;2022-09-02T00:25:35;11.05;;;4.57;;
63784;SDS011;49927;48.146;11.420;2022-09-02T00:28:01;4.22;;;3.83;;
63784;SDS011;49927;48.146;11.420;2022-09-02T00:30:27;6.82;;;4.28;;
63784;SDS011;49927;48.146;11.420;2022-09-02T00:32:54;4.25;;;3.85;;
63784;SDS011;49927;48.146;11.420;2022-09-02T00:35:20;4.43;;;3.90;;
63784;SDS011;49927;48.146;11.420;2022-09-02T00:37:45;4.72;;;4.22;;
63784;SDS011;49927;48.146;11.420;2022-09-02T00:40:11;4.07;;;3.65;;
63784;SDS011;49927;48.146;11.420;2022-09-02T00:42:37;4.88;;;4.05;;
63784;SDS011;49927;48.146;11.420;2022-09-02T00:45:04;4.13;;;3.83;;
63784;SDS011;49927;48.146;11.420;2022-09-02T00:47:30;5.60;;;4.80;;
63784;SDS011;49927;48.146;11.420;2022-09-02T00:49:57;4.45;;;4.03;;
63784;SDS011;49927;48.146;11.420;2022-09-02T00:52:23;7.32;;;5.03;;
63784;SDS011;49927;48.146;11.420;2022-09-02T00:54:53;5.45;;;4.45;;
63784;SDS011;49927;48.146;11.420;2022-09-02T00:57:20;5.00;;;4.47;;
63784;SDS011;49927;48.146;11.420;2022-09-02T00:59:48;7.38;;;4.68;;
63784;SDS011;49927;48.146;11.420;2022-09-02T01:02:16;5.97;;;5.10;;
63784;SDS011;49927;48.146;11.420;2022-09-02T01:04:42;7.28;;;4.57;;
63784;SDS011;49927;48.146;11.420;2022-09-02T01:07:09;4.88;;;4.40;;
63784;SDS011;49927;48.146;11.420;2022-09-02T01:09:34;5.18;;;4.47;;
63784;SDS011;49927;48.146;11.420;2022-09-02T01:12:00;7.78;;;5.00;;
63784;SDS011;49927;48.146;11.420;2022-09-02T01:14:26;7.85;;;5.00;;
63784;SDS011;49927;48.146;11.420;2022-09-02T01:16:52;5.97;;;4.30;;
63784;SDS011;49927;48.146;11.420;2022-09-02T01:19:20;4.90;;;4.40;;
63784;SDS011;49927;48.146;11.420;2022-09-02T01:21:48;6.70;;;4.70;;
63784;SDS011;49927;48.146;11.420;2022-09-02T01:24:15;6.80;;;5.22;;
63784;SDS011;49927;48.146;11.420;2022-09-02T01:26:41;5.22;;;4.70;;
63784;SDS011;49927;48.146;11.420;2022-09-02T01:29:07;5.93;;;5.35;;
63784;SDS011;49927;48.146;11.420;2022-09-02T01:31:32;5.85;;;5.25;;
63784;SDS011;49927;48.146;11.420;2022-09-02T01:33:58;5.85;;;5.28;;
63784;SDS011;49927;48.146;11.420;2022-09-02T01:36:23;7.60;;;5.10;;
63784;SDS011;49927;48.146;11.420;2022-09-02T01:38:50;9.65;;;5.43;;
63784;SDS011;49927;48.146;11.420;2022-09-02T01:41:16;8.80;;;5.07;;
63784;SDS011;49927;48.146;11.420;2022-09-02T01:43:41;6.25;;;5.65;;
63784;SDS011;49927;48.146;11.420;2022-09-02T01:46:07;6.38;;;5.25;;
63784;SDS011;49927;48.146;11.420;2022-09-02T01:48:32;6.75;;;5.35;;
63784;SDS011;49927;48.146;11.420;2022-09-02T01:50:59;7.13;;;5.57;;
63784;SDS011;49927;48.146;11.420;2022-09-02T01:53:25;6.47;;;5.32;;
63784;SDS011;49927;48.146;11.420;2022-09-02T01:55:53;5.97;;;5.38;;
63784;SDS011;49927;48.146;11.420;2022-09-02T01:58:19;7.13;;;5.38;;
63784;SDS011;49927;48.146;11.420;2022-09-02T02:00:44;7.70;;;5.35;;
63784;SDS011;49927;48.146;11.420;2022-09-02T02:03:10;6.60;;;5.63;;
63784;SDS011;49927;48.146;11.420;2022-09-02T02:05:36;6.13;;;5.53;;
63784;SDS011;49927;48.146;11.420;2022-09-02T02:08:02;5.97;;;5.30;;
63784;SDS011;49927;48.146;11.420;2022-09-02T02:10:28;8.55;;;5.63;;
63784;SDS011;49927;48.146;11.420;2022-09-02T02:12:55;7.88;;;5.90;;
63784;SDS011;49927;48.146;11.420;2022-09-02T02:15:20;5.72;;;5.13;;
63784;SDS011;49927;48.146;11.420;2022-09-02T02:17:46;6.70;;;5.93;;
63784;SDS011;49927;48.146;11.420;2022-09-02T02:20:12;7.07;;;5.85;;
63784;SDS011;49927;48.146;11.420;2022-09-02T02:22:38;6.80;;;5.30;;
63784;SDS011;49927;48.146;11.420;2022-09-02T02:25:04;5.53;;;5.03;;
63784;SDS011;49927;48.146;11.420;2022-09-02T02:27:31;6.32;;;5.72;;
63784;SDS011;49927;48.146;11.420;2022-09-02T02:29:58;8.90;;;5.72;;
63784;SDS011;49927;48.146;11.420;2022-09-02T02:32:23;7.53;;;6.82;;
63784;SDS011;49927;48.146;11.420;2022-09-02T02:34:49;6.82;;;6.13;;
63784;SDS011;49927;48.146;11.420;2022-09-02T02:37:14;7.60;;;6.80;;
63784;SDS011;49927;48.146;11.420;2022-09-02T02:39:40;8.40;;;6.13;;
63784;SDS011;49927;48.146;11.420;2022-09-02T02:42:06;7.50;;;5.97;;
63784;SDS011;49927;48.146;11.420;2022-09-02T02:44:32;8.63;;;6.88;;
63784;SDS011;49927;48.146;11.420;2022-09-02T02:47:00;7.35;;;5.75;;
63784;SDS011;49927;48.146;11.420;2022-09-02T02:49:25;10.88;;;6.60;;
63784;SDS011;49927;48.146;11.420;2022-09-02T02:51:51;9.57;;;6.43;;
63784;SDS011;49927;48.146;11.420;2022-09-02T02:54:17;7.20;;;6.43;;
63784;SDS011;49927;48.146;11.420;2022-09-02T02:56:42;7.93;;;7.15;;
63784;SDS011;49927;48.146;11.420;2022-09-02T02:59:08;9.73;;;7.20;;
63784;SDS011;49927;48.146;11.420;2022-09-02T03:01:33;8.40;;;7.20;;
63784;SDS011;49927;48.146;11.420;2022-09-02T03:04:00;7.65;;;6.47;;
63784;SDS011;49927;48.146;11.420;2022-09-02T03:06:26;11.88;;;6.93;;
63784;SDS011;49927;48.146;11.420;2022-09-02T03:08:52;7.55;;;6.63;;
63784;SDS011;49927;48.146;11.420;2022-09-02T03:11:17;7.80;;;7.00;;
63784;SDS011;49927;48.146;11.420;2022-09-02T03:13:43;7.90;;;7.10;;
63784;SDS011;49927;48.146;11.420;2022-09-02T03:16:09;10.02;;;7.10;;
63784;SDS011;49927;48.146;11.420;2022-09-02T03:18:34;8.05;;;7.22;;
63784;SDS011;49927;48.146;11.420;2022-09-02T03:21:04;9.57;;;7.20;;
63784;SDS011;49927;48.146;11.420;2022-09-02T03:23:31;9.40;;;7.18;;
63784;SDS011;49927;48.146;11.420;2022-09-02T03:25:56;8.68;;;7.13;;
63784;SDS011;49927;48.146;11.420;2022-09-02T03:28:21;8.55;;;6.88;;
63784;SDS011;49927;48.146;11.420;2022-09-02T03:30:47;8.48;;;7.50;;
63784;SDS011;49927;48.146;11.420;2022-09-02T03:33:12;8.65;;;6.88;;
63784;SDS011;49927;48.146;11.420;2022-09-02T03:35:39;10.30;;;7.88;;
63784;SDS011;49927;48.146;11.420;2022-09-02T03:38:07;8.15;;;7.03;;
63784;SDS011;49927;48.146;11.420;2022-09-02T03:40:33;11.18;;;7.15;;
63784;SDS011;49927;48.146;11.420;2022-09-02T03:42:58;13.93;;;8.55;;
63784;SDS011;49927;48.146;11.420;2022-09-02T03:45:24;8.90;;;7.60;;
63784;SDS011;49927;48.146;11.420;2022-09-02T03:47:50;12.15;;;8.80;;
63784;SDS011;49927;48.146;11.420;2022-09-02T03:50:15;8.85;;;7.63;;
63784;SDS011;49927;48.146;11.420;2022-09-02T03:52:41;11.57;;;8.55;;
63784;SDS011;49927;48.146;11.420;2022-09-02T03:55:09;8.38;;;7.47;;
63784;SDS011;49927;48.146;11.420;2022-09-02T03:57:35;10.25;;;7.88;;
63784;SDS011;49927;48.146;11.420;2022-09-02T04:00:01;9.52;;;8.10;;
63784;SDS011;49927;48.146;11.420;2022-09-02T04:02:28;8.45;;;7.55;;
63784;SDS011;49927;48.146;11.420;2022-09-02T04:04:53;9.43;;;7.38;;
63784;SDS011;49927;48.146;11.420;2022-09-02T04:07:19;10.70;;;8.02;;
63784;SDS011;49927;48.146;11.420;2022-09-02T04:09:44;9.90;;;7.63;;
63784;SDS011;49927;48.146;11.420;2022-09-02T04:12:11;8.95;;;7.97;;
63784;SDS011;49927;48.146;11.420;2022-09-02T04:14:37;12.13;;;8.73;;
63784;SDS011;49927;48.146;11.420;2022-09-02T04:17:02;9.00;;;8.10;;
63784;SDS011;49927;48.146;11.420;2022-09-02T04:19:28;9.40;;;6.93;;
63784;SDS011;49927;48.146;11.420;2022-09-02T04:21:53;9.57;;;8.15;;
63784;SDS011;49927;48.146;11.420;2022-09-02T04:24:19;10.20;;;8.68;;
63784;SDS011;49927;48.146;11.420;2022-09-02T04:26:44;9.82;;;8.82;;
63784;SDS011;49927;48.146;11.420;2022-09-02T04:29:11;10.52;;;8.90;;
63784;SDS011;49927;48.146;11.420;2022-09-02T04:31:37;12.02;;;9.73;;
63784;SDS011;49927;48.146;11.420;2022-09-02T04:34:02;11.52;;;9.70;;
63784;SDS011;49927;48.146;11.420;2022-09-02T04:36:28;13.57;;;10.10;;
63784;SDS011;49927;48.146;11.420;2022-09-02T04:38:55;12.43;;;10.75;;
63784;SDS011;49927;48.146;11.420;2022-09-02T04:41:23;15.00;;;10.48;;
63784;SDS011;49927;48.146;11.420;2022-09-02T04:43:50;14.38;;;10.25;;
63784;SDS011;49927;48.146;11.420;2022-09-02T04:46:18;11.07;;;9.98;;
63784;SDS011;49927;48.146;11.420;2022-09-02T04:48:44;12.70;;;10.23;;
63784;SDS011;49927;48.146;11.420;2022-09-02T04:51:11;11.82;;;10.63;;
63784;SDS011;49927;48.146;11.420;2022-09-02T04:53:38;13.13;;;9.95;;
63784;SDS011;49927;48.146;11.420;2022-09-02T04:56:05;13.88;;;10.52;;
63784;SDS011;49927;48.146;11.420;2022-09-02T04:58:32;12.05;;;10.63;;
63784;SDS011;49927;48.146;11.420;2022-09-02T05:00:57;11.57;;;10.23;;
63784;SDS011;49927;48.146;11.420;2022-09-02T05:03:24;14.32;;;11.43;;
63784;SDS011;49927;48.146;11.420;2022-09-02T05:05:57;15.25;;;10.30;;
63784;SDS011;49927;48.146;11.420;2022-09-02T05:08:23;11.27;;;10.10;;
63784;SDS011;49927;48.146;11.420;2022-09-02T05:10:48;15.05;;;11.20;;
63784;SDS011;49927;48.146;11.420;2022-09-02T05:13:14;13.90;;;11.40;;
63784;SDS011;49927;48.146;11.420;2022-09-02T05:15:39;12.20;;;10.90;;
63784;SDS011;49927;48.146;11.420;2022-09-02T05:18:05;12.73;;;10.00;;
63784;SDS011;49927;48.146;11.420;2022-09-02T05:20:32;12.32;;;10.60;;
63784;SDS011;49927;48.146;11.420;2022-09-02T05:22:57;13.88;;;10.98;;
63784;SDS011;49927;48.146;11.420;2022-09-02T05:25:23;13.85;;;11.90;;
63784;SDS011;49927;48.146;11.420;2022-09-02T05:27:48;20.20;;;11.15;;
63784;SDS011;49927;48.146;11.420;2022-09-02T05:30:14;12.70;;;11.38;;
63784;SDS011;49927;48.146;11.420;2022-09-02T05:32:39;14.43;;;11.13;;
63784;SDS011;49927;48.146;11.420;2022-09-02T05:35:05;14.32;;;10.95;;
63784;SDS011;49927;48.146;11.420;2022-09-02T05:37:32;13.10;;;11.73;;
63784;SDS011;49927;48.146;11.420;2022-09-02T05:39:58;12.45;;;10.25;;
63784;SDS011;49927;48.146;11.420;2022-09-02T05:42:24;11.40;;;9.95;;
63784;SDS011;49927;48.146;11.420;2022-09-02T05:44:49;12.60;;;10.00;;
63784;SDS011;49927;48.146;11.420;2022-09-02T05:47:15;10.63;;;9.63;;
63784;SDS011;49927;48.146;11.420;2022-09-02T05:49:40;12.07;;;9.48;;
63784;SDS011;49927;48.146;11.420;2022-09-02T05:52:06;10.85;;;9.15;;
63784;SDS011;49927;48.146;11.420;2022-09-02T05:54:33;11.75;;;9.27;;
63784;SDS011;49927;48.146;11.420;2022-09-02T05:57:01;10.90;;;9.20;;
63784;SDS011;49927;48.146;11.420;2022-09-02T05:59:28;15.18;;;8.98;;
63784;SDS011;49927;48.146;11.420;2022-09-02T06:01:55;9.07;;;8.13;;
63784;SDS011;49927;48.146;11.420;2022-09-02T06:04:21;11.00;;;7.88;;
63784;SDS011;49927;48.146;11.420;2022-09-02T06:06:47;8.50;;;7.70;;
63784;SDS011;49927;48.146;11.420;2022-09-02T06:09:13;8.48;;;7.43;;
63784;SDS011;49927;48.146;11.420;2022-09-02T06:11:42;8.80;;;6.45;;
63784;SDS011;49927;48.146;11.420;2022-09-02T06:14:07;8.68;;;6.97;;
63784;SDS011;49927;48.146;11.420;2022-09-02T06:16:34;7.72;;;6.72;;
63784;SDS011;49927;48.146;11.420;2022-09-02T06:18:59;8.00;;;7.00;;
63784;SDS011;49927;48.146;11.420;2022-09-02T06:21:25;7.40;;;6.68;;
63784;SDS011;49927;48.146;11.420;2022-09-02T06:23:50;11.45;;;7.10;;
63784;SDS011;49927;48.146;11.420;2022-09-02T06:26:16;7.28;;;5.60;;
63784;SDS011;49927;48.146;11.420;2022-09-02T06:28:44;10.30;;;6.75;;
63784;SDS011;49927;48.146;11.420;2022-09-02T06:31:10;6.82;;;6.13;;
63784;SDS011;49927;48.146;11.420;2022-09-02T06:33:37;8.52;;;5.70;;
63784;SDS011;49927;48.146;11.420;2022-09-02T06:36:04;8.93;;;5.50;;
63784;SDS011;49927;48.146;11.420;2022-09-02T06:38:30;6.35;;;5.63;;
63784;SDS011;49927;48.146;11.420;2022-09-02T06:40:56;6.72;;;5.47;;
63784;SDS011;49927;48.146;11.420;2022-09-02T06:43:21;8.60;;;5.78;;
63784;SDS011;49927;48.146;11.420;2022-09-02T06:45:48;7.45;;;6.03;;
63784;SDS011;49927;48.146;11.420;2022-09-02T06:48:14;5.90;;;5.03;;
63784;SDS011;49927;48.146;11.420;2022-09-02T06:50:40;5.70;;;5.10;;
63784;SDS011;49927;48.146;11.420;2022-09-02T06:53:07;6.22;;;4.80;;
63784;SDS011;49927;48.146;11.420;2022-09-02T06:55:33;5.65;;;5.03;;
63784;SDS011;49927;48.146;11.420;2022-09-02T06:57:59;5.35;;;4.70;;
63784;SDS011;49927;48.146;11.420;2022-09-02T07:00:25;5.10;;;4.60;;
63784;SDS011;49927;48.146;11.420;2022-09-02T07:02:52;7.28;;;5.43;;
63784;SDS011;49927;48.146;11.420;2022-09-02T07:05:17;6.68;;;4.90;;
63784;SDS011;49927;48.146;11.420;2022-09-02T07:07:43;7.80;;;5.38;;
63784;SDS011;49927;48.146;11.420;2022-09-02T07:10:09;5.00;;;3.80;;
63784;SDS011;49927;48.146;11.420;2022-09-02T07:12:36;6.93;;;4.85;;
63784;SDS011;49927;48.146;11.420;2022-09-02T07:15:04;8.82;;;5.38;;
63784;SDS011;49927;48.146;11.420;2022-09-02T07:17:30;4.47;;;3.95;;
63784;SDS011;49927;48.146;11.420;2022-09-02T07:19:57;5.43;;;4.85;;
63784;SDS011;49927;48.146;11.420;2022-09-02T07:22:23;7.35;;;4.47;;
63784;SDS011;49927;48.146;11.420;2022-09-02T07:24:49;6.38;;;4.47;;
63784;SDS011;49927;48.146;11.420;2022-09-02T07:27:14;3.47;;;3.13;;
63784;SDS011;49927;48.146;11.420;2022-09-02T07:29:40;6.10;;;3.55;;
63784;SDS011;49927;48.146;11.420;2022-09-02T07:32:05;4.63;;;3.92;;
63784;SDS011;49927;48.146;11.420;2022-09-02T07:34:31;4.60;;;4.03;;
63784;SDS011;49927;48.146;11.420;2022-09-02T07:36:58;4.15;;;3.45;;
63784;SDS011;49927;48.146;11.420;2022-09-02T07:39:23;7.40;;;3.80;;
63784;SDS011;49927;48.146;11.420;2022-09-02T07:41:49;6.45;;;3.95;;
63784;SDS011;49927;48.146;11.420;2022-09-02T07:44:15;5.20;;;3.60;;
63784;SDS011;49927;48.146;11.420;2022-09-02T07:46:41;3.97;;;3.58;;
63784;SDS011;49927;48.146;11.420;2022-09-02T07:49:08;5.25;;;4.00;;
63784;SDS011;49927;48.146;11.420;2022-09-02T07:51:34;4.78;;;3.60;;
63784;SDS011;49927;48.146;11.420;2022-09-02T07:54:05;3.72;;;3.42;;
63784;SDS011;49927;48.146;11.420;2022-09-02T07:56:31;3.88;;;3.22;;
63784;SDS011;49927;48.146;11.420;2022-09-02T07:58:56;4.28;;;3.55;;
63784;SDS011;49927;48.146;11.420;2022-09-02T08:01:22;3.42;;;3.15;;
63784;SDS011;49927;48.146;11.420;2022-09-02T08:03:48;4.00;;;3.55;;
63784;SDS011;49927;48.146;11.420;2022-09-02T08:06:14;5.43;;;3.35;;
63784;SDS011;49927;48.146;11.420;2022-09-02T08:08:40;6.82;;;3.47;;
63784;SDS011;49927;48.146;11.420;2022-09-02T08:11:08;4.05;;;3.60;;
63784;SDS011;49927;48.146;11.420;2022-09-02T08:13:34;6.28;;;3.33;;
63784;SDS011;49927;48.146;11.420;2022-09-02T08:16:01;3.88;;;2.92;;
63784;SDS011;49927;48.146;11.420;2022-09-02T08:18:27;5.53;;;3.10;;
63784;SDS011;49927;48.146;11.420;2022-09-02T08:20:52;4.88;;;2.75;;
63784;SDS011;49927;48.146;11.420;2022-09-02T08:23:18;3.67;;;2.72;;
63784;SDS011;49927;48.146;11.420;2022-09-02T08:25:43;4.97;;;2.47;;
63784;SDS011;49927;48.146;11.420;2022-09-02T08:28:10;4.03;;;2.95;;
63784;SDS011;49927;48.146;11.420;2022-09-02T08:30:35;2.63;;;2.35;;
63784;SDS011;49927;48.146;11.420;2022-09-02T08:33:08;3.55;;;2.70;;
63784;SDS011;49927;48.146;11.420;2022-09-02T08:35:36;2.75;;;2.20;;
63784;SDS011;49927;48.146;11.420;2022-09-02T08:38:02;2.15;;;1.95;;
63784;SDS011;49927;48.146;11.420;2022-09-02T08:40:32;2.58;;;1.63;;
63784;SDS011;49927;48.146;11.420;2022-09-02T08:43:01;2.83;;;2.10;;
63784;SDS011;49927;48.146;11.420;2022-09-02T08:45:29;3.40;;;1.95;;
63784;SDS011;49927;48.146;11.420;2022-09-02T08:48:00;2.55;;;1.55;;
63784;SDS011;49927;48.146;11.420;2022-09-02T08:50:28;2.75;;;2.00;;
63784;SDS011;49927;48.146;11.420;2022-09-02T08:52:56;3.42;;;1.98;;
63784;SDS011;49927;48.146;11.420;2022-09-02T08:55:28;1.70;;;1.52;;
63784;SDS011;49927;48.146;11.420;2022-09-02T08:57:56;2.83;;;1.80;;
63784;SDS011;49927;48.146;11.420;2022-09-02T09:00:22;3.83;;;1.48;;
63784;SDS011;49927;48.146;11.420;2022-09-02T09:02:53;1.85;;;1.60;;
63784;SDS011;49927;48.146;11.420;2022-09-02T09:05:23;4.20;;;1.65;;
63784;SDS011;49927;48.146;11.420;2022-09-02T09:07:57;2.97;;;1.92;;
63784;SDS011;49927;48.146;11.420;2022-09-02T09:10:32;1.70;;;1.60;;
63784;SDS011;49927;48.146;11.420;2022-09-02T09:13:03;2.33;;;1.27;;
63784;SDS011;49927;48.146;11.420;2022-09-02T09:15:39;2.22;;;1.33;;
63784;SDS011;49927;48.146;11.420;2022-09-02T09:18:10;3.72;;;2.10;;
63784;SDS011;49927;48.146;11.420;2022-09-02T09:20:40;1.35;;;1.25;;
63784;SDS011;49927;48.146;11.420;2022-09-02T09:23:08;2.33;;;1.50;;
63784;SDS011;49927;48.146;11.420;2022-09-02T09:25:52;2.50;;;1.37;;
63784;SDS011;49927;48.146;11.420;2022-09-02T09:28:19;2.25;;;1.58;;
63784;SDS011;49927;48.146;11.420;2022-09-02T09:30:45;2.10;;;1.40;;
63784;SDS011;49927;48.146;11.420;2022-09-02T09:33:13;1.45;;;1.33;;
63784;SDS011;49927;48.146;11.420;2022-09-02T09:35:47;1.98;;;1.45;;
63784;SDS011;49927;48.146;11.420;2022-09-02T09:38:13;3.42;;;1.95;;
63784;SDS011;49927;48.146;11.420;2022-09-02T09:40:38;1.92;;;1.73;;
63784;SDS011;49927;48.146;11.420;2022-09-02T09:43:11;1.85;;;1.50;;
63784;SDS011;49927;48.146;11.420;2022-09-02T09:45:38;1.50;;;1.20;;
63784;SDS011;49927;48.146;11.420;2022-09-02T09:48:06;1.92;;;1.52;;
63784;SDS011;49927;48.146;11.420;2022-09-02T09:51:08;2.95;;;1.38;;
63784;SDS011;49927;48.146;11.420;2022-09-02T09:53:35;2.22;;;1.60;;
63784;SDS011;49927;48.146;11.420;2022-09-02T09:56:02;3.15;;;1.77;;
63784;SDS011;49927;48.146;11.420;2022-09-02T09:58:30;2.25;;;1.40;;
63784;SDS011;49927;48.146;11.420;2022-09-02T10:00:57;3.58;;;1.70;;
63784;SDS011;49927;48.146;11.420;2022-09-02T10:03:26;1.85;;;1.65;;
63784;SDS011;49927;48.146;11.420;2022-09-02T10:05:54;1.67;;;1.38;;
63784;SDS011;49927;48.146;11.420;2022-09-02T10:08:21;1.50;;;1.40;;
63784;SDS011;49927;48.146;11.420;2022-09-02T10:10:57;1.90;;;1.45;;
63784;SDS011;49927;48.146;11.420;2022-09-02T10:15:53;1.42;;;1.33;;
63784;SDS011;49927;48.146;11.420;2022-09-02T10:18:30;3.58;;;1.38;;
63784;SDS011;49927;48.146;11.420;2022-09-02T10:21:03;2.50;;;1.80;;
63784;SDS011;49927;48.146;11.420;2022-09-02T10:23:39;2.47;;;1.90;;
63784;SDS011;49927;48.146;11.420;2022-09-02T10:26:12;2.83;;;1.75;;
63784;SDS011;49927;48.146;11.420;2022-09-02T10:28:57;2.08;;;1.50;;
63784;SDS011;49927;48.146;11.420;2022-09-02T10:31:31;1.95;;;1.38;;
63784;SDS011;49927;48.146;11.420;2022-09-02T10:34:04;1.98;;;1.50;;
63784;SDS011;49927;48.146;11.420;2022-09-02T10:36:39;4.50;;;1.48;;
63784;SDS011;49927;48.146;11.420;2022-09-02T10:39:17;2.08;;;1.60;;
63784;SDS011;49927;48.146;11.420;2022-09-02T10:41:48;3.88;;;1.30;;
63784;SDS011;49927;48.146;11.420;2022-09-02T10:44:22;1.85;;;1.40;;
63784;SDS011;49927;48.146;11.420;2022-09-02T10:46:52;2.13;;;1.48;;
63784;SDS011;49927;48.146;11.420;2022-09-02T10:49:24;1.35;;;1.25;;
63784;SDS011;49927;48.146;11.420;2022-09-02T10:54:31;2.13;;;1.70;;
63784;SDS011;49927;48.146;11.420;2022-09-02T10:57:03;1.60;;;1.50;;
63784;SDS011;49927;48.146;11.420;2022-09-02T10:59:31;1.65;;;1.25;;
63784;SDS011;49927;48.146;11.420;2022-09-02T11:01:59;1.75;;;1.65;;
63784;SDS011;49927;48.146;11.420;2022-09-02T11:04:32;2.42;;;1.27;;
63784;SDS011;49927;48.146;11.420;2022-09-02T11:07:02;1.42;;;1.33;;
63784;SDS011;49927;48.146;11.420;2022-09-02T11:09:30;2.50;;;1.30;;
63784;SDS011;49927;48.146;11.420;2022-09-02T11:11:59;1.90;;;1.20;;
63784;SDS011;49927;48.146;11.420;2022-09-02T11:14:30;5.25;;;1.35;;
63784;SDS011;49927;48.146;11.420;2022-09-02T11:16:59;1.80;;;1.20;;
63784;SDS011;49927;48.146;11.420;2022-09-02T11:19:27;2.53;;;1.10;;
63784;SDS011;49927;48.146;11.420;2022-09-02T11:21:57;1.65;;;1.20;;
63784;SDS011;49927;48.146;11.420;2022-09-02T11:24:29;1.77;;;1.30;;
63784;SDS011;49927;48.146;11.420;2022-09-02T11:26:57;2.80;;;1.58;;
63784;SDS011;49927;48.146;11.420;2022-09-02T11:29:27;3.35;;;1.67;;
63784;SDS011;49927;48.146;11.420;2022-09-02T11:32:00;1.60;;;1.40;;
63784;SDS011;49927;48.146;11.420;2022-09-02T11:34:33;1.63;;;1.20;;
63784;SDS011;49927;48.146;11.420;2022-09-02T11:37:01;1.17;;;1.08;;
63784;SDS011;49927;48.146;11.420;2022-09-02T11:39:29;2.95;;;1.92;;
63784;SDS011;49927;48.146;11.420;2022-09-02T11:42:06;1.73;;;1.20;;
63784;SDS011;49927;48.146;11.420;2022-09-02T11:44:43;3.10;;;1.50;;
63784;SDS011;49927;48.146;11.420;2022-09-02T11:50:22;3.17;;;1.50;;
63784;SDS011;49927;48.146;11.420;2022-09-02T11:52:57;2.40;;;1.38;;
63784;SDS011;49927;48.146;11.420;2022-09-02T11:55:29;4.72;;;1.45;;
63784;SDS011;49927;48.146;11.420;2022-09-02T11:57:56;2.05;;;1.20;;
63784;SDS011;49927;48.146;11.420;2022-09-02T12:00:26;2.60;;;1.25;;
63784;SDS011;49927;48.146;11.420;2022-09-02T12:05:45;1.88;;;1.38;;
63784;SDS011;49927;48.146;11.420;2022-09-02T12:08:13;1.85;;;1.20;;
63784;SDS011;49927;48.146;11.420;2022-09-02T12:14:01;3.92;;;1.35;;
63784;SDS011;49927;48.146;11.420;2022-09-02T12:16:39;2.88;;;1.45;;
63784;SDS011;49927;48.146;11.420;2022-09-02T12:19:15;3.08;;;1.17;;
63784;SDS011;49927;48.146;11.420;2022-09-02T12:24:56;1.75;;;1.30;;
63784;SDS011;49927;48.146;11.420;2022-09-02T12:27:28;2.22;;;1.50;;
63784;SDS011;49927;48.146;11.420;2022-09-02T12:29:57;2.03;;;1.30;;
63784;SDS011;49927;48.146;11.420;2022-09-02T12:35:29;4.25;;;1.50;;
63784;SDS011;49927;48.146;11.420;2022-09-02T12:38:25;3.55;;;1.20;;
63784;SDS011;49927;48.146;11.420;2022-09-02T12:40:53;2.70;;;1.52;;
63784;SDS011;49927;48.146;11.420;2022-09-02T12:43:23;1.40;;;1.30;;
63784;SDS011;49927;48.146;11.420;2022-09-02T12:45:50;1.40;;;1.30;;
63784;SDS011;49927;48.146;11.420;2022-09-02T12:48:17;2.88;;;1.58;;
63784;SDS011;49927;48.146;11.420;2022-09-02T12:50:50;2.83;;;1.50;;
63784;SDS011;49927;48.146;11.420;2022-09-02T12:53:24;2.13;;;1.50;;
63784;SDS011;49927;48.146;11.420;2022-09-02T12:55:53;1.30;;;1.20;;
63784;SDS011;49927;48.146;11.420;2022-09-02T12:58:23;1.50;;;1.23;;
63784;SDS011;49927;48.146;11.420;2022-09-02T13:00:57;2.55;;;1.35;;
63784;SDS011;49927;48.146;11.420;2022-09-02T13:06:17;4.13;;;1.27;;
63784;SDS011;49927;48.146;11.420;2022-09-02T13:08:59;2.60;;;1.60;;
63784;SDS011;49927;48.146;11.420;2022-09-02T13:11:59;3.78;;;1.55;;
63784;SDS011;49927;48.146;11.420;2022-09-02T13:14:52;1.88;;;1.35;;
63784;SDS011;49927;48.146;11.420;2022-09-02T13:17:25;3.83;;;1.20;;
63784;SDS011;49927;48.146;11.420;2022-09-02T13:22:54;1.65;;;1.50;;
63784;SDS011;49927;48.146;11.420;2022-09-02T13:25:35;1.52;;;1.27;;
63784;SDS011;49927;48.146;11.420;2022-09-02T13:28:18;2.83;;;1.33;;
63784;SDS011;49927;48.146;11.420;2022-09-02T13:30:59;1.88;;;1.55;;
63784;SDS011;49927;48.146;11.420;2022-09-02T13:33:28;1.73;;;1.08;;
63784;SDS011;49927;48.146;11.420;2022-09-02T13:35:54;2.63;;;1.55;;
63784;SDS011;49927;48.146;11.420;2022-09-02T13:38:21;1.23;;;1.15;;
63784;SDS011;49927;48.146;11.420;2022-09-02T13:40:47;2.25;;;1.40;;
63784;SDS011;49927;48.146;11.420;2022-09-02T13:43:16;2.65;;;1.40;;
63784;SDS011;49927;48.146;11.420;2022-09-02T13:45:42;1.70;;;1.20;;
63784;SDS011;49927;48.146;11.420;2022-09-02T13:48:13;1.92;;;1.35;;
63784;SDS011;49927;48.146;11.420;2022-09-02T13:50:41;1.50;;;1.40;;
63784;SDS011;49927;48.146;11.420;2022-09-02T13:53:07;1.80;;;1.40;;
63784;SDS011;49927;48.146;11.420;2022-09-02T13:55:33;2.55;;;1.40;;
63784;SDS011;49927;48.146;11.420;2022-09-02T13:57:59;2.80;;;1.83;;
63784;SDS011;49927;48.146;11.420;2022-09-02T14:00:29;2.28;;;1.67;;
63784;SDS011;49927;48.146;11.420;2022-09-02T14:02:58;1.92;;;1.40;;
63784;SDS011;49927;48.146;11.420;2022-09-02T14:05:27;1.52;;;1.30;;
63784;SDS011;49927;48.146;11.420;2022-09-02T14:07:59;2.13;;;1.30;;
63784;SDS011;49927;48.146;11.420;2022-09-02T14:10:33;1.00;;;1.00;;
63784;SDS011;49927;48.146;11.420;2022-09-02T14:13:02;5.00;;;1.42;;
63784;SDS011;49927;48.146;11.420;2022-09-02T14:15:29;4.07;;;1.63;;
63784;SDS011;49927;48.146;11.420;2022-09-02T14:18:05;2.63;;;1.90;;
63784;SDS011;49927;48.146;11.420;2022-09-02T14:20:37;1.98;;;1.60;;
63784;SDS011;49927;48.146;11.420;2022-09-02T14:23:03;1.58;;;1.30;;
63784;SDS011;49927;48.146;11.420;2022-09-02T14:25:31;1.70;;;1.27;;
63784;SDS011;49927;48.146;11.420;2022-09-02T14:28:22;3.03;;;1.60;;
63784;SDS011;49927;48.146;11.420;2022-09-02T14:30:58;2.90;;;1.30;;
63784;SDS011;49927;48.146;11.420;2022-09-02T14:33:26;2.95;;;1.27;;
63784;SDS011;49927;48.146;11.420;2022-09-02T14:36:04;4.28;;;2.05;;
63784;SDS011;49927;48.146;11.420;2022-09-02T14:38:31;2.80;;;1.38;;
63784;SDS011;49927;48.146;11.420;2022-09-02T14:41:00;1.88;;;1.23;;
63784;SDS011;49927;48.146;11.420;2022-09-02T14:43:26;1.40;;;1.13;;
63784;SDS011;49927;48.146;11.420;2022-09-02T14:46:02;1.65;;;1.20;;
63784;SDS011;49927;48.146;11.420;2022-09-02T14:48:29;5.80;;;1.40;;
63784;SDS011;49927;48.146;11.420;2022-09-02T14:51:03;3.25;;;1.48;;
63784;SDS011;49927;48.146;11.420;2022-09-02T14:53:30;1.60;;;1.20;;
63784;SDS011;49927;48.146;11.420;2022-09-02T14:55:56;1.90;;;1.40;;
63784;SDS011;49927;48.146;11.420;2022-09-02T14:58:22;2.42;;;1.40;;
63784;SDS011;49927;48.146;11.420;2022-09-02T15:00:49;2.65;;;1.73;;
63784;SDS011;49927;48.146;11.420;2022-09-02T15:03:16;1.73;;;1.00;;